createdAt,value
2018-09-27T00:00:17.562Z,956.78
2018-09-27T00:01:24.838Z,956.79
2018-09-27T00:02:32.934Z,956.79
2018-09-27T00:03:40.963Z,956.78
2018-09-27T00:04:49.028Z,956.77
2018-09-27T00:05:57.064Z,956.76
2018-09-27T00:07:05.204Z,956.77
2018-09-27T00:08:13.279Z,956.72
2018-09-27T00:09:21.257Z,956.73
2018-09-27T00:10:29.310Z,956.71
2018-09-27T00:11:37.377Z,956.71
2018-09-27T00:12:45.433Z,956.70
2018-09-27T00:13:53.577Z,956.73
2018-09-27T00:15:01.650Z,956.73
2018-09-27T00:16:09.610Z,956.71
2018-09-27T00:17:17.663Z,956.73
2018-09-27T00:18:25.727Z,956.74
2018-09-27T00:19:33.908Z,956.74
2018-09-27T00:20:41.855Z,956.69
2018-09-27T00:21:49.898Z,956.72
2018-09-27T00:22:57.958Z,956.71
2018-09-27T00:24:06.007Z,956.67
2018-09-27T00:25:14.167Z,956.68
2018-09-27T00:26:22.158Z,956.65
2018-09-27T00:27:30.203Z,956.64
2018-09-27T00:28:38.260Z,956.64
2018-09-27T00:29:46.322Z,956.62
2018-09-27T00:30:54.472Z,956.64
2018-09-27T00:32:02.434Z,956.62
2018-09-27T00:33:10.499Z,956.63
2018-09-27T00:34:18.558Z,956.61
2018-09-27T00:35:26.607Z,956.64
2018-09-27T00:36:34.755Z,956.60
2018-09-27T00:37:42.704Z,956.62
2018-09-27T00:38:50.784Z,956.63
2018-09-27T00:39:58.836Z,956.61
2018-09-27T00:41:06.904Z,956.62
2018-09-27T00:42:15.045Z,956.58
2018-09-27T00:43:23.015Z,956.56
2018-09-27T00:44:31.063Z,956.59
2018-09-27T00:45:39.134Z,956.53
2018-09-27T00:46:47.281Z,956.51
2018-09-27T00:47:55.356Z,956.51
2018-09-27T00:49:03.281Z,956.48
2018-09-27T00:50:11.372Z,956.47
2018-09-27T00:51:19.428Z,956.46
2018-09-27T00:52:27.579Z,956.44
2018-09-27T00:53:35.546Z,956.41
2018-09-27T00:54:43.590Z,956.37
2018-09-27T00:55:51.674Z,956.39
2018-09-27T00:56:59.858Z,956.36
2018-09-27T00:58:07.883Z,956.36
2018-09-27T00:59:15.850Z,956.31
2018-09-27T01:00:23.898Z,956.34
2018-09-27T01:01:31.957Z,956.31
2018-09-27T01:02:40.110Z,956.33
2018-09-27T01:03:48.072Z,956.32
2018-09-27T01:04:56.131Z,956.30
2018-09-27T01:06:04.188Z,956.26
2018-09-27T01:07:12.254Z,956.27
2018-09-27T01:08:20.404Z,956.32
2018-09-27T01:09:28.373Z,956.28
2018-09-27T01:10:36.435Z,956.25
2018-09-27T01:11:44.480Z,956.26
2018-09-27T01:12:52.536Z,956.24
2018-09-27T01:14:00.691Z,956.25
2018-09-27T01:15:08.660Z,956.27
2018-09-27T01:16:16.718Z,956.24
2018-09-27T01:17:24.771Z,956.23
2018-09-27T01:18:32.803Z,956.21
2018-09-27T01:19:40.995Z,956.21
2018-09-27T01:20:48.948Z,956.20
2018-09-27T01:21:57.013Z,956.21
2018-09-27T01:23:05.065Z,956.20
2018-09-27T01:24:13.098Z,956.15
2018-09-27T01:25:21.281Z,956.17
2018-09-27T01:26:29.246Z,956.14
2018-09-27T01:27:37.307Z,956.15
2018-09-27T01:28:45.352Z,956.15
2018-09-27T01:29:53.405Z,956.16
2018-09-27T01:31:01.556Z,956.13
2018-09-27T01:32:09.551Z,956.14
2018-09-27T01:33:17.683Z,956.13
2018-09-27T01:34:25.659Z,956.15
2018-09-27T01:35:33.727Z,956.12
2018-09-27T01:36:41.876Z,956.15
2018-09-27T01:37:49.827Z,956.12
2018-09-27T01:38:57.924Z,956.14
2018-09-27T01:40:05.942Z,956.06
2018-09-27T01:41:14.012Z,956.06
2018-09-27T01:42:22.147Z,956.07
2018-09-27T01:43:30.123Z,956.06
2018-09-27T01:44:38.182Z,956.08
2018-09-27T01:45:46.236Z,956.05
2018-09-27T01:46:54.292Z,956.08
2018-09-27T01:48:02.437Z,956.06
2018-09-27T01:49:10.504Z,956.07
2018-09-27T01:50:18.462Z,956.09
2018-09-27T01:51:26.529Z,956.10
2018-09-27T01:52:34.683Z,956.10
2018-09-27T01:53:42.759Z,956.09
2018-09-27T01:54:50.704Z,956.08
2018-09-27T01:55:58.781Z,956.11
2018-09-27T01:57:06.838Z,956.06
2018-09-27T01:58:14.982Z,956.07
2018-09-27T01:59:22.922Z,956.05
2018-09-27T02:00:31.006Z,956.09
2018-09-27T02:01:39.065Z,956.06
2018-09-27T02:02:47.159Z,956.04
2018-09-27T02:03:55.280Z,956.05
2018-09-27T02:05:03.318Z,956.02
2018-09-27T02:06:11.302Z,956.00
2018-09-27T02:07:19.358Z,956.02
2018-09-27T02:08:27.408Z,955.95
2018-09-27T02:09:35.557Z,955.99
2018-09-27T02:10:43.516Z,955.99
2018-09-27T02:11:51.592Z,955.97
2018-09-27T02:12:59.648Z,955.96
2018-09-27T02:14:07.710Z,955.99
2018-09-27T02:15:15.856Z,955.97
2018-09-27T02:16:23.819Z,955.93
2018-09-27T02:17:31.878Z,955.94
2018-09-27T02:18:39.932Z,955.91
2018-09-27T02:19:47.998Z,955.89
2018-09-27T02:20:56.155Z,955.88
2018-09-27T02:22:04.112Z,955.89
2018-09-27T02:23:12.275Z,955.90
2018-09-27T02:24:20.222Z,955.85
2018-09-27T02:25:28.280Z,955.85
2018-09-27T02:26:36.452Z,955.87
2018-09-27T02:27:44.393Z,955.81
2018-09-27T02:28:52.455Z,955.85
2018-09-27T02:30:00.510Z,955.85
2018-09-27T02:31:08.589Z,955.86
2018-09-27T02:32:16.732Z,955.85
2018-09-27T02:33:24.708Z,955.88
2018-09-27T02:34:32.735Z,955.87
2018-09-27T02:35:40.827Z,955.85
2018-09-27T02:36:48.872Z,955.85
2018-09-27T02:37:57.035Z,955.84
2018-09-27T02:39:04.996Z,955.83
2018-09-27T02:40:13.064Z,955.81
2018-09-27T02:41:21.107Z,955.81
2018-09-27T02:42:29.262Z,955.81
2018-09-27T02:43:37.228Z,955.79
2018-09-27T02:44:45.283Z,955.80
2018-09-27T02:45:53.308Z,955.79
2018-09-27T02:47:01.401Z,955.77
2018-09-27T02:48:09.510Z,955.77
2018-09-27T02:49:17.517Z,955.78
2018-09-27T02:50:25.575Z,955.74
2018-09-27T02:51:33.630Z,955.75
2018-09-27T02:52:41.792Z,955.69
2018-09-27T02:53:49.847Z,955.66
2018-09-27T02:54:57.807Z,955.68
2018-09-27T02:56:05.859Z,955.66
2018-09-27T02:57:13.932Z,955.65
2018-09-27T02:58:22.072Z,955.64
2018-09-27T02:59:30.044Z,955.63
2018-09-27T03:00:38.105Z,955.64
2018-09-27T03:01:46.152Z,955.66
2018-09-27T03:02:54.219Z,955.60
2018-09-27T03:04:02.410Z,955.64
2018-09-27T03:05:10.339Z,955.61
2018-09-27T03:06:18.392Z,955.63
2018-09-27T03:07:26.445Z,955.57
2018-09-27T03:08:34.522Z,955.62
2018-09-27T03:09:42.645Z,955.61
2018-09-27T03:10:50.627Z,955.57
2018-09-27T03:11:58.691Z,955.56
2018-09-27T03:13:06.750Z,955.57
2018-09-27T03:14:14.797Z,955.55
2018-09-27T03:15:22.941Z,955.52
2018-09-27T03:16:30.917Z,955.53
2018-09-27T03:17:38.961Z,955.52
2018-09-27T03:18:47.052Z,955.54
2018-09-27T03:19:55.085Z,955.53
2018-09-27T03:21:03.300Z,955.55
2018-09-27T03:22:11.205Z,955.52
2018-09-27T03:23:19.264Z,955.53
2018-09-27T03:24:27.321Z,955.49
2018-09-27T03:25:35.490Z,955.50
2018-09-27T03:26:43.532Z,955.45
2018-09-27T03:27:51.492Z,955.48
2018-09-27T03:28:59.558Z,955.42
2018-09-27T03:30:07.646Z,955.45
2018-09-27T03:31:15.698Z,955.43
2018-09-27T03:32:23.845Z,955.44
2018-09-27T03:33:31.824Z,955.49
2018-09-27T03:34:39.879Z,955.43
2018-09-27T03:35:47.903Z,955.43
2018-09-27T03:36:55.969Z,955.42
2018-09-27T03:38:04.078Z,955.43
2018-09-27T03:39:12.076Z,955.40
2018-09-27T03:40:20.143Z,955.40
2018-09-27T03:41:28.282Z,955.39
2018-09-27T03:42:36.353Z,955.33
2018-09-27T03:43:44.316Z,955.38
2018-09-27T03:44:52.371Z,955.33
2018-09-27T03:46:00.425Z,955.33
2018-09-27T03:47:08.557Z,955.28
2018-09-27T03:48:16.629Z,955.29
2018-09-27T03:49:24.606Z,955.28
2018-09-27T03:50:32.664Z,955.28
2018-09-27T03:51:40.728Z,955.26
2018-09-27T03:52:48.768Z,955.27
2018-09-27T03:53:56.918Z,955.29
2018-09-27T03:55:04.902Z,955.25
2018-09-27T03:56:12.933Z,955.23
2018-09-27T03:57:21.114Z,955.22
2018-09-27T03:58:29.068Z,955.21
2018-09-27T03:59:37.194Z,955.23
2018-09-27T04:00:45.167Z,955.22
2018-09-27T04:01:53.213Z,955.21
2018-09-27T04:03:01.292Z,955.25
2018-09-27T04:04:09.373Z,955.26
2018-09-27T04:05:17.509Z,955.23
2018-09-27T04:06:25.477Z,955.24
2018-09-27T04:07:33.524Z,955.27
2018-09-27T04:08:41.609Z,955.26
2018-09-27T04:09:49.650Z,955.23
2018-09-27T04:10:57.808Z,955.20
2018-09-27T04:12:05.759Z,955.20
2018-09-27T04:13:13.912Z,955.20
2018-09-27T04:14:21.881Z,955.23
2018-09-27T04:15:30.667Z,955.20
2018-09-27T04:16:38.092Z,955.21
2018-09-27T04:17:46.065Z,955.19
2018-09-27T04:18:54.105Z,955.20
2018-09-27T04:20:02.162Z,955.20
2018-09-27T04:21:10.783Z,955.19
2018-09-27T04:22:18.379Z,955.19
2018-09-27T04:23:26.337Z,955.20
2018-09-27T04:24:34.397Z,955.18
2018-09-27T04:25:42.457Z,955.17
2018-09-27T04:26:50.524Z,955.16
2018-09-27T04:27:58.670Z,955.14
2018-09-27T04:29:06.627Z,955.14
2018-09-27T04:30:14.691Z,955.16
2018-09-27T04:31:22.759Z,955.17
2018-09-27T04:32:30.871Z,955.16
2018-09-27T04:33:38.890Z,955.23
2018-09-27T04:34:46.918Z,955.21
2018-09-27T04:35:54.991Z,955.23
2018-09-27T04:37:03.065Z,955.30
2018-09-27T04:38:11.148Z,955.31
2018-09-27T04:39:19.152Z,955.33
2018-09-27T04:40:28.883Z,955.32
2018-09-27T04:41:35.268Z,955.32
2018-09-27T04:42:43.406Z,955.30
2018-09-27T04:43:51.390Z,955.28
2018-09-27T04:44:59.573Z,955.27
2018-09-27T04:46:07.837Z,955.27
2018-09-27T04:47:15.612Z,955.25
2018-09-27T04:48:23.711Z,955.26
2018-09-27T04:49:31.693Z,955.25
2018-09-27T04:50:39.744Z,955.26
2018-09-27T04:51:47.896Z,955.23
2018-09-27T04:52:55.886Z,955.25
2018-09-27T04:54:04.023Z,955.24
2018-09-27T04:55:11.970Z,955.24
2018-09-27T04:56:20.043Z,955.24
2018-09-27T04:57:28.211Z,955.22
2018-09-27T04:58:36.164Z,955.22
2018-09-27T04:59:44.377Z,955.24
2018-09-27T05:00:52.297Z,955.26
2018-09-27T05:02:00.417Z,955.24
2018-09-27T05:03:08.418Z,955.26
2018-09-27T05:04:16.472Z,955.22
2018-09-27T05:05:26.847Z,955.17
2018-09-27T05:06:34.168Z,955.21
2018-09-27T05:07:40.658Z,955.19
2018-09-27T05:08:48.726Z,955.19
2018-09-27T05:09:56.788Z,955.18
2018-09-27T05:11:04.927Z,955.19
2018-09-27T05:12:12.871Z,955.13
2018-09-27T05:13:21.045Z,955.13
2018-09-27T05:14:29.025Z,955.14
2018-09-27T05:15:37.163Z,955.15
2018-09-27T05:16:45.219Z,955.14
2018-09-27T05:17:53.149Z,955.16
2018-09-27T05:19:01.230Z,955.16
2018-09-27T05:20:09.294Z,955.14
2018-09-27T05:21:17.364Z,955.16
2018-09-27T05:22:25.490Z,955.15
2018-09-27T05:23:33.451Z,955.16
2018-09-27T05:24:41.522Z,955.15
2018-09-27T05:25:49.570Z,955.15
2018-09-27T05:26:57.647Z,955.11
2018-09-27T05:28:05.782Z,955.12
2018-09-27T05:29:13.753Z,955.10
2018-09-27T05:30:21.803Z,955.09
2018-09-27T05:31:29.887Z,955.03
2018-09-27T05:32:37.952Z,955.05
2018-09-27T05:33:45.963Z,955.00
2018-09-27T05:34:55.418Z,954.93
2018-09-27T05:36:03.479Z,955.01
2018-09-27T05:37:11.553Z,954.95
2018-09-27T05:38:19.693Z,954.97
2018-09-27T05:39:27.716Z,954.97
2018-09-27T05:40:35.849Z,955.00
2018-09-27T05:41:43.775Z,955.01
2018-09-27T05:42:51.927Z,955.01
2018-09-27T05:43:59.997Z,955.03
2018-09-27T05:46:22.871Z,955.03
2018-09-27T05:47:30.937Z,955.02
2018-09-27T05:48:39.000Z,955.04
2018-09-27T05:49:47.208Z,955.00
2018-09-27T05:50:55.109Z,954.99
2018-09-27T05:52:03.147Z,955.03
2018-09-27T05:53:11.230Z,955.04
2018-09-27T05:54:19.293Z,955.00
2018-09-27T05:55:27.445Z,955.02
2018-09-27T05:56:35.415Z,955.03
2018-09-27T05:57:43.533Z,955.06
2018-09-27T05:58:51.525Z,955.04
2018-09-27T05:59:59.591Z,955.05
2018-09-27T06:01:07.688Z,955.09
2018-09-27T06:02:15.703Z,955.06
2018-09-27T06:03:23.784Z,955.07
2018-09-27T06:04:31.810Z,955.08
2018-09-27T06:05:39.872Z,955.06
2018-09-27T06:06:48.038Z,955.03
2018-09-27T06:07:55.983Z,955.04
2018-09-27T06:09:04.058Z,955.07
2018-09-27T06:10:12.090Z,955.04
2018-09-27T06:11:20.164Z,955.02
2018-09-27T06:12:28.268Z,955.02
2018-09-27T06:13:36.364Z,955.01
2018-09-27T06:14:44.341Z,955.07
2018-09-27T06:15:52.409Z,955.03
2018-09-27T06:17:00.480Z,955.04
2018-09-27T06:18:08.556Z,955.02
2018-09-27T06:19:16.654Z,955.00
2018-09-27T06:20:24.640Z,955.00
2018-09-27T06:21:32.684Z,954.98
2018-09-27T06:22:40.844Z,955.01
2018-09-27T06:23:48.791Z,955.02
2018-09-27T06:24:56.864Z,954.99
2018-09-27T06:26:04.957Z,955.04
2018-09-27T06:27:12.954Z,954.98
2018-09-27T06:28:21.129Z,955.03
2018-09-27T06:29:29.193Z,955.01
2018-09-27T06:30:37.164Z,954.97
2018-09-27T06:31:45.222Z,955.00
2018-09-27T06:32:53.356Z,955.01
2018-09-27T06:34:01.544Z,954.97
2018-09-27T06:35:09.709Z,955.00
2018-09-27T06:36:17.661Z,955.00
2018-09-27T06:37:25.735Z,955.01
2018-09-27T06:38:33.787Z,955.00
2018-09-27T06:39:41.850Z,955.07
2018-09-27T06:40:49.890Z,955.07
2018-09-27T06:41:57.950Z,955.03
2018-09-27T06:43:06.118Z,955.03
2018-09-27T06:44:14.205Z,954.99
2018-09-27T06:45:22.233Z,954.96
2018-09-27T06:46:30.193Z,954.95
2018-09-27T06:47:38.265Z,954.95
2018-09-27T06:48:46.448Z,955.01
2018-09-27T06:49:54.371Z,955.07
2018-09-27T06:51:02.424Z,955.13
2018-09-27T06:52:10.500Z,955.08
2018-09-27T06:53:18.578Z,955.11
2018-09-27T06:54:26.698Z,955.14
2018-09-27T06:55:34.846Z,955.18
2018-09-27T06:56:42.839Z,955.23
2018-09-27T06:57:50.788Z,955.14
2018-09-27T06:58:58.849Z,955.26
2018-09-27T07:00:07.017Z,955.67
2018-09-27T07:01:15.066Z,956.06
2018-09-27T07:02:23.027Z,955.78
2018-09-27T07:03:31.087Z,956.18
2018-09-27T07:04:39.147Z,956.36
2018-09-27T07:05:48.938Z,956.95
2018-09-27T07:06:56.896Z,957.90
2018-09-27T07:08:04.958Z,958.55
2018-09-27T07:09:12.977Z,958.36
2018-09-27T07:10:21.085Z,958.61
2018-09-27T07:11:29.213Z,958.52
2018-09-27T07:12:37.211Z,958.93
2018-09-27T07:13:45.260Z,959.53
2018-09-27T07:14:53.311Z,959.21
2018-09-27T07:16:01.393Z,958.94
2018-09-27T07:17:09.545Z,958.61
2018-09-27T07:18:17.512Z,958.39
2018-09-27T07:20:37.938Z,958.78
2018-09-27T07:23:01.339Z,958.70
2018-09-27T07:24:11.558Z,959.34
2018-09-27T07:25:19.701Z,959.93
2018-09-27T07:26:27.763Z,960.27
2018-09-27T07:27:35.858Z,960.08
2018-09-27T07:28:43.841Z,959.72
2018-09-27T07:29:51.881Z,959.93
2018-09-27T07:31:00.041Z,960.15
2018-09-27T07:32:08.120Z,959.91
2018-09-27T07:33:16.135Z,960.35
2018-09-27T07:34:24.151Z,962.00
2018-09-27T07:36:42.998Z,961.04
2018-09-27T07:37:51.032Z,960.97
2018-09-27T07:38:59.656Z,961.76
2018-09-27T07:40:07.738Z,961.11
2018-09-27T07:41:15.806Z,960.40
2018-09-27T07:42:23.855Z,959.82
2018-09-27T07:43:31.941Z,958.75
2018-09-27T07:44:40.038Z,957.15
2018-09-27T07:45:48.072Z,956.74
2018-09-27T07:46:56.138Z,956.13
2018-09-27T07:48:04.410Z,955.99
2018-09-27T07:49:12.280Z,956.31
2018-09-27T07:50:20.367Z,956.10
2018-09-27T07:51:28.433Z,955.78
2018-09-27T07:52:36.484Z,956.22
2018-09-27T07:53:44.658Z,957.61
2018-09-27T07:54:52.629Z,958.01
2018-09-27T07:56:00.709Z,957.73
2018-09-27T07:57:08.763Z,957.56
2018-09-27T07:58:16.841Z,956.90
2018-09-27T07:59:24.995Z,956.23
2018-09-27T08:00:32.951Z,956.43
2018-09-27T08:01:41.054Z,955.92
2018-09-27T08:02:49.336Z,955.50
2018-09-27T08:03:57.245Z,955.58
2018-09-27T08:05:05.352Z,955.68
2018-09-27T08:06:15.541Z,955.72
2018-09-27T08:07:25.810Z,955.59
2018-09-27T08:08:34.117Z,956.44
2018-09-27T08:09:42.164Z,957.25
2018-09-27T08:10:52.005Z,958.45
2018-09-27T08:11:58.548Z,957.53
2018-09-27T08:13:06.555Z,956.40
2018-09-27T08:14:14.635Z,957.35
2018-09-27T08:15:22.696Z,958.78
2018-09-27T08:16:30.871Z,958.96
2018-09-27T08:17:38.836Z,958.16
2018-09-27T08:18:46.999Z,958.20
2018-09-27T08:19:54.970Z,958.69
2018-09-27T08:21:03.054Z,956.43
2018-09-27T08:22:11.211Z,955.26
2018-09-27T08:23:19.212Z,955.25
2018-09-27T08:24:27.250Z,955.26
2018-09-27T08:25:35.343Z,955.22
2018-09-27T08:26:43.479Z,955.26
2018-09-27T08:27:51.588Z,955.29
2018-09-27T08:28:59.517Z,955.21
2018-09-27T08:30:07.579Z,955.26
2018-09-27T08:31:15.725Z,955.26
2018-09-27T08:32:23.794Z,955.18
2018-09-27T08:33:31.826Z,955.22
2018-09-27T08:34:39.959Z,955.19
2018-09-27T08:35:47.915Z,955.19
2018-09-27T08:36:55.986Z,955.15
2018-09-27T08:38:04.152Z,955.16
2018-09-27T08:39:12.111Z,955.16
2018-09-27T08:40:20.181Z,955.13
2018-09-27T08:41:28.255Z,955.13
2018-09-27T08:42:36.415Z,955.11
2018-09-27T08:43:44.380Z,955.11
2018-09-27T08:44:52.575Z,955.15
2018-09-27T08:46:00.512Z,955.19
2018-09-27T08:47:08.688Z,955.11
2018-09-27T08:48:16.751Z,955.14
2018-09-27T08:49:24.712Z,955.13
2018-09-27T08:50:32.854Z,955.06
2018-09-27T08:51:40.895Z,955.08
2018-09-27T08:52:48.898Z,955.01
2018-09-27T08:53:57.062Z,955.04
2018-09-27T08:55:05.034Z,955.00
2018-09-27T08:56:13.216Z,955.05
2018-09-27T08:57:21.166Z,955.01
2018-09-27T08:58:29.236Z,954.95
2018-09-27T08:59:37.394Z,954.95
2018-09-27T09:00:45.352Z,954.95
2018-09-27T09:01:53.408Z,954.97
2018-09-27T09:03:01.492Z,954.96
2018-09-27T09:04:09.549Z,954.96
2018-09-27T09:05:17.723Z,954.97
2018-09-27T09:06:25.792Z,954.95
2018-09-27T09:07:33.779Z,954.95
2018-09-27T09:08:41.827Z,954.96
2018-09-27T09:09:49.875Z,954.89
2018-09-27T09:10:58.043Z,954.89
2018-09-27T09:12:06.045Z,954.85
2018-09-27T09:13:14.073Z,954.86
2018-09-27T09:14:22.150Z,954.85
2018-09-27T09:15:30.256Z,954.85
2018-09-27T09:16:38.362Z,954.82
2018-09-27T09:17:46.348Z,954.81
2018-09-27T09:18:54.416Z,954.79
2018-09-27T09:20:02.455Z,954.84
2018-09-27T09:21:10.525Z,954.82
2018-09-27T09:22:18.696Z,954.81
2018-09-27T09:23:26.943Z,954.80
2018-09-27T09:24:35.044Z,954.79
2018-09-27T09:25:42.848Z,954.80
2018-09-27T09:26:50.861Z,954.78
2018-09-27T09:27:58.980Z,954.75
2018-09-27T09:29:07.004Z,954.74
2018-09-27T09:30:15.061Z,954.74
2018-09-27T09:31:23.132Z,954.73
2018-09-27T09:32:31.286Z,954.73
2018-09-27T09:33:39.303Z,954.71
2018-09-27T09:34:47.337Z,954.70
2018-09-27T09:35:55.395Z,954.69
2018-09-27T09:37:03.439Z,954.69
2018-09-27T09:38:11.611Z,954.67
2018-09-27T09:39:19.580Z,954.64
2018-09-27T09:40:27.652Z,954.57
2018-09-27T09:41:35.710Z,954.62
2018-09-27T09:42:43.876Z,954.57
2018-09-27T09:43:51.854Z,954.58
2018-09-27T09:45:00.062Z,954.62
2018-09-27T09:46:07.987Z,954.61
2018-09-27T09:47:16.049Z,954.62
2018-09-27T09:48:24.217Z,954.61
2018-09-27T09:49:32.183Z,954.61
2018-09-27T09:50:40.242Z,954.59
2018-09-27T09:51:48.324Z,954.62
2018-09-27T09:52:56.481Z,954.62
2018-09-27T09:54:04.536Z,954.59
2018-09-27T09:55:12.508Z,954.59
2018-09-27T09:56:20.581Z,954.57
2018-09-27T09:57:28.712Z,954.56
2018-09-27T09:58:36.711Z,954.60
2018-09-27T09:59:44.872Z,954.55
2018-09-27T10:00:52.822Z,954.57
2018-09-27T10:02:00.914Z,954.50
2018-09-27T10:03:08.972Z,954.49
2018-09-27T10:04:17.044Z,954.41
2018-09-27T10:05:25.212Z,954.42
2018-09-27T10:06:33.157Z,954.39
2018-09-27T10:07:41.348Z,954.39
2018-09-27T10:08:49.333Z,954.37
2018-09-27T10:09:57.381Z,954.32
2018-09-27T10:11:05.544Z,954.28
2018-09-27T10:12:13.492Z,954.35
2018-09-27T10:13:21.566Z,954.34
2018-09-27T10:14:29.643Z,954.31
2018-09-27T10:15:37.722Z,954.34
2018-09-27T10:16:45.867Z,954.38
2018-09-27T10:17:53.847Z,954.40
2018-09-27T10:19:01.935Z,954.36
2018-09-27T10:20:09.977Z,954.32
2018-09-27T10:21:18.060Z,954.29
2018-09-27T10:22:26.205Z,954.31
2018-09-27T10:23:34.179Z,954.28
2018-09-27T10:24:42.256Z,954.26
2018-09-27T10:25:50.307Z,954.31
2018-09-27T10:26:58.372Z,954.26
2018-09-27T10:28:06.541Z,954.28
2018-09-27T10:29:14.511Z,954.25
2018-09-27T10:30:22.567Z,954.27
2018-09-27T10:31:30.642Z,954.24
2018-09-27T10:32:38.767Z,954.24
2018-09-27T10:33:46.772Z,954.22
2018-09-27T10:34:54.850Z,954.20
2018-09-27T10:36:02.919Z,954.16
2018-09-27T10:37:10.991Z,954.18
2018-09-27T10:38:19.105Z,954.15
2018-09-27T10:39:27.117Z,954.12
2018-09-27T10:40:35.181Z,954.09
2018-09-27T10:41:43.326Z,954.11
2018-09-27T10:42:51.418Z,954.09
2018-09-27T10:43:59.375Z,954.13
2018-09-27T10:45:07.438Z,954.06
2018-09-27T10:46:15.495Z,954.05
2018-09-27T10:47:23.569Z,954.06
2018-09-27T10:48:31.725Z,954.02
2018-09-27T10:49:39.707Z,953.97
2018-09-27T10:50:47.757Z,954.00
2018-09-27T10:51:55.826Z,954.00
2018-09-27T10:53:03.900Z,953.98
2018-09-27T10:54:12.060Z,953.92
2018-09-27T10:55:20.042Z,953.91
2018-09-27T10:56:28.093Z,953.91
2018-09-27T10:57:36.781Z,953.87
2018-09-27T11:03:05.111Z,953.91
2018-09-27T11:04:13.094Z,953.83
2018-09-27T11:05:21.148Z,953.85
2018-09-27T11:06:29.308Z,953.87
2018-09-27T11:07:37.290Z,953.87
2018-09-27T11:08:45.341Z,953.87
2018-09-27T11:09:53.496Z,953.88
2018-09-27T11:11:01.527Z,953.85
2018-09-27T11:12:09.645Z,953.88
2018-09-27T11:13:17.622Z,953.80
2018-09-27T11:14:25.699Z,953.81
2018-09-27T11:15:33.760Z,953.76
2018-09-27T11:16:41.889Z,953.77
2018-09-27T11:17:49.964Z,953.75
2018-09-27T11:18:57.968Z,953.72
2018-09-27T11:20:06.026Z,953.72
2018-09-27T11:21:14.110Z,953.71
2018-09-27T11:22:22.168Z,953.71
2018-09-27T11:23:30.233Z,953.64
2018-09-27T11:24:38.306Z,953.68
2018-09-27T11:25:46.472Z,953.64
2018-09-27T11:26:54.445Z,953.63
2018-09-27T11:28:02.581Z,953.63
2018-09-27T11:29:10.606Z,953.59
2018-09-27T11:30:18.644Z,953.55
2018-09-27T11:31:26.721Z,953.59
2018-09-27T11:32:34.868Z,953.53
2018-09-27T11:33:42.826Z,953.50
2018-09-27T11:34:50.916Z,953.51
2018-09-27T11:35:58.980Z,953.48
2018-09-27T11:37:07.072Z,953.41
2018-09-27T11:38:15.216Z,953.41
2018-09-27T11:39:23.165Z,953.37
2018-09-27T11:40:31.253Z,953.35
2018-09-27T11:41:39.409Z,953.35
2018-09-27T11:42:47.489Z,953.35
2018-09-27T11:43:55.577Z,953.33
2018-09-27T11:45:03.509Z,953.31
2018-09-27T11:46:11.586Z,953.28
2018-09-27T11:47:19.651Z,953.29
2018-09-27T11:48:27.729Z,953.29
2018-09-27T11:49:36.142Z,953.26
2018-09-27T11:50:43.868Z,953.25
2018-09-27T11:51:51.946Z,953.21
2018-09-27T11:52:59.993Z,953.23
2018-09-27T11:54:08.065Z,953.20
2018-09-27T11:55:16.253Z,953.20
2018-09-27T11:56:24.214Z,953.17
2018-09-27T11:58:42.930Z,953.11
2018-09-27T11:59:51.287Z,953.07
2018-09-27T12:00:59.201Z,953.09
2018-09-27T12:02:07.154Z,953.04
2018-09-27T12:03:15.223Z,953.04
2018-09-27T12:04:23.267Z,953.01
2018-09-27T12:05:31.364Z,952.97
2018-09-27T12:06:39.596Z,952.95
2018-09-27T12:07:47.500Z,952.94
2018-09-27T12:14:01.280Z,952.85
2018-09-27T12:15:09.243Z,952.84
2018-09-27T12:16:17.312Z,952.81
2018-09-27T12:17:25.374Z,952.80
2018-09-27T12:18:33.436Z,952.79
2018-09-27T12:19:41.546Z,952.78
2018-09-27T12:20:49.583Z,952.75
2018-09-27T12:21:57.655Z,952.74
2018-09-27T12:23:05.787Z,952.71
2018-09-27T12:24:13.776Z,952.72
2018-09-27T12:25:21.856Z,952.67
2018-09-27T12:26:29.924Z,952.68
2018-09-27T12:27:38.076Z,952.68
2018-09-27T12:28:46.052Z,952.64
2018-09-27T12:29:54.121Z,952.62
2018-09-27T12:31:02.224Z,952.61
2018-09-27T12:32:10.263Z,952.58
2018-09-27T12:33:18.426Z,952.60
2018-09-27T12:35:36.080Z,952.51
2018-09-27T12:36:44.208Z,952.47
2018-09-27T12:37:52.223Z,952.50
2018-09-27T12:39:00.575Z,952.52
2018-09-27T12:40:08.358Z,952.45
2018-09-27T12:41:16.428Z,952.46
2018-09-27T12:42:24.541Z,952.38
2018-09-27T12:43:32.554Z,952.44
2018-09-27T12:44:40.730Z,952.38
2018-09-27T12:45:48.747Z,952.37
2018-09-27T12:46:56.864Z,952.36
2018-09-27T12:48:04.967Z,952.34
2018-09-27T12:49:12.886Z,952.27
2018-09-27T12:50:21.078Z,952.29
2018-09-27T12:51:29.211Z,952.25
2018-09-27T12:52:37.163Z,952.26
2018-09-27T12:53:45.185Z,952.22
2018-09-27T12:54:53.227Z,952.21
2018-09-27T12:56:01.444Z,952.19
2018-09-27T12:57:09.417Z,952.20
2018-09-27T12:58:17.550Z,952.17
2018-09-27T12:59:25.530Z,952.14
2018-09-27T13:00:33.584Z,952.16
2018-09-27T13:01:41.918Z,952.11
2018-09-27T13:02:49.909Z,952.10
2018-09-27T13:03:57.890Z,952.08
2018-09-27T13:05:05.865Z,952.08
2018-09-27T13:06:13.931Z,952.07
2018-09-27T13:07:22.101Z,952.06
2018-09-27T13:08:30.116Z,952.03
2018-09-27T13:09:38.269Z,952.01
2018-09-27T13:10:46.210Z,952.01
2018-09-27T13:11:54.313Z,952.01
2018-09-27T13:13:02.519Z,952.00
2018-09-27T13:14:10.524Z,951.96
2018-09-27T13:15:18.485Z,951.96
2018-09-27T13:16:26.556Z,951.96
2018-09-27T13:17:34.768Z,951.96
2018-09-27T13:18:42.667Z,951.96
2018-09-27T13:19:50.816Z,951.89
2018-09-27T13:20:58.822Z,951.94
2018-09-27T13:22:06.885Z,951.89
2018-09-27T13:23:15.053Z,951.84
2018-09-27T13:24:23.062Z,951.85
2018-09-27T13:25:31.165Z,951.83
2018-09-27T13:26:39.220Z,951.77
2018-09-27T13:27:47.236Z,951.75
2018-09-27T13:28:55.397Z,951.75
2018-09-27T13:30:03.470Z,951.73
2018-09-27T13:31:11.452Z,951.71
2018-09-27T13:32:19.543Z,951.72
2018-09-27T13:33:27.579Z,951.67
2018-09-27T13:34:35.750Z,951.65
2018-09-27T13:35:43.717Z,951.64
2018-09-27T13:36:51.841Z,951.61
2018-09-27T13:37:59.849Z,951.63
2018-09-27T13:39:07.960Z,951.60
2018-09-27T13:40:16.085Z,951.60
2018-09-27T13:41:24.054Z,951.57
2018-09-27T13:42:32.123Z,951.60
2018-09-27T13:43:40.327Z,951.54
2018-09-27T13:44:48.256Z,951.56
2018-09-27T13:45:56.427Z,951.53
2018-09-27T13:47:04.397Z,951.56
2018-09-27T13:48:12.480Z,951.53
2018-09-27T13:49:20.545Z,951.51
2018-09-27T13:50:28.613Z,951.51
2018-09-27T13:51:36.777Z,951.51
2018-09-27T13:52:44.750Z,951.45
2018-09-27T13:53:52.787Z,951.48
2018-09-27T13:55:00.973Z,951.44
2018-09-27T13:56:08.976Z,951.44
2018-09-27T13:57:17.183Z,951.42
2018-09-27T13:58:25.087Z,951.45
2018-09-27T13:59:33.132Z,951.44
2018-09-27T14:00:41.226Z,951.46
2018-09-27T14:01:49.386Z,951.44
2018-09-27T14:02:57.515Z,951.42
2018-09-27T14:04:05.432Z,951.38
2018-09-27T14:05:13.527Z,951.38
2018-09-27T14:06:21.557Z,951.36
2018-09-27T14:07:29.729Z,951.35
2018-09-27T14:08:37.703Z,951.32
2018-09-27T14:09:45.773Z,951.33
2018-09-27T14:10:53.841Z,951.28
2018-09-27T14:12:01.923Z,951.30
2018-09-27T14:13:10.061Z,951.26
2018-09-27T14:14:18.037Z,951.29
2018-09-27T14:15:26.120Z,951.22
2018-09-27T14:16:34.185Z,951.25
2018-09-27T14:17:42.342Z,951.21
2018-09-27T14:18:50.321Z,951.22
2018-09-27T14:19:58.385Z,951.21
2018-09-27T14:21:06.450Z,951.22
2018-09-27T14:22:14.526Z,951.20
2018-09-27T14:23:22.667Z,951.17
2018-09-27T14:24:30.855Z,951.13
2018-09-27T14:25:38.999Z,951.13